sensor_id;sensor_type;location;lat;lon;timestamp;P1;durP1;ratioP1;P2;durP2;ratioP2
13102;SDS011;52970;46.752;17.108;2023-01-19T00:00:59;118.90;;;34.10;;
13102;SDS011;52970;46.752;17.108;2023-01-19T00:03:24;76.93;;;23.27;;
13102;SDS011;52970;46.752;17.108;2023-01-19T00:05:49;134.67;;;38.23;;
13102;SDS011;52970;46.752;17.108;2023-01-19T00:08:15;73.17;;;23.17;;
13102;SDS011;52970;46.752;17.108;2023-01-19T00:10:42;63.90;;;19.77;;
13102;SDS011;52970;46.752;17.108;2023-01-19T00:13:07;154.20;;;45.53;;
13102;SDS011;52970;46.752;17.108;2023-01-19T00:15:32;93.03;;;30.10;;
13102;SDS011;52970;46.752;17.108;2023-01-19T00:17:58;204.00;;;56.07;;
13102;SDS011;52970;46.752;17.108;2023-01-19T00:20:23;147.10;;;46.70;;
13102;SDS011;52970;46.752;17.108;2023-01-19T00:22:48;100.63;;;33.83;;
13102;SDS011;52970;46.752;17.108;2023-01-19T00:25:15;51.17;;;19.23;;
13102;SDS011;52970;46.752;17.108;2023-01-19T00:27:40;66.90;;;26.10;;
13102;SDS011;52970;46.752;17.108;2023-01-19T00:30:06;50.47;;;20.33;;
13102;SDS011;52970;46.752;17.108;2023-01-19T00:32:31;75.73;;;29.73;;
13102;SDS011;52970;46.752;17.108;2023-01-19T00:34:57;49.60;;;21.33;;
13102;SDS011;52970;46.752;17.108;2023-01-19T00:37:22;73.10;;;27.40;;
13102;SDS011;52970;46.752;17.108;2023-01-19T00:39:47;107.10;;;33.87;;
13102;SDS011;52970;46.752;17.108;2023-01-19T00:42:12;60.00;;;22.90;;
13102;SDS011;52970;46.752;17.108;2023-01-19T00:44:56;67.17;;;25.47;;
13102;SDS011;52970;46.752;17.108;2023-01-19T00:47:22;81.50;;;27.40;;
13102;SDS011;52970;46.752;17.108;2023-01-19T00:49:47;160.03;;;48.13;;
13102;SDS011;52970;46.752;17.108;2023-01-19T00:52:12;104.37;;;33.93;;
13102;SDS011;52970;46.752;17.108;2023-01-19T00:54:37;141.80;;;44.60;;
13102;SDS011;52970;46.752;17.108;2023-01-19T00:57:03;82.20;;;32.90;;
13102;SDS011;52970;46.752;17.108;2023-01-19T00:59:28;122.47;;;41.43;;
13102;SDS011;52970;46.752;17.108;2023-01-19T01:01:53;55.63;;;23.87;;
13102;SDS011;52970;46.752;17.108;2023-01-19T01:04:18;47.20;;;20.83;;
13102;SDS011;52970;46.752;17.108;2023-01-19T01:06:44;56.57;;;25.80;;
13102;SDS011;52970;46.752;17.108;2023-01-19T01:09:09;31.73;;;16.50;;
13102;SDS011;52970;46.752;17.108;2023-01-19T01:11:37;45.53;;;19.00;;
13102;SDS011;52970;46.752;17.108;2023-01-19T01:14:03;57.23;;;26.60;;
13102;SDS011;52970;46.752;17.108;2023-01-19T01:16:29;33.50;;;17.97;;
13102;SDS011;52970;46.752;17.108;2023-01-19T01:18:54;14.83;;;10.73;;
13102;SDS011;52970;46.752;17.108;2023-01-19T01:21:19;11.43;;;8.80;;
13102;SDS011;52970;46.752;17.108;2023-01-19T01:23:45;10.00;;;8.30;;
13102;SDS011;52970;46.752;17.108;2023-01-19T01:26:10;8.67;;;7.33;;
13102;SDS011;52970;46.752;17.108;2023-01-19T01:28:36;8.07;;;7.30;;
13102;SDS011;52970;46.752;17.108;2023-01-19T01:31:01;7.90;;;6.73;;
13102;SDS011;52970;46.752;17.108;2023-01-19T01:33:27;7.00;;;6.30;;
13102;SDS011;52970;46.752;17.108;2023-01-19T01:35:52;6.80;;;5.83;;
13102;SDS011;52970;46.752;17.108;2023-01-19T01:38:18;8.47;;;5.67;;
13102;SDS011;52970;46.752;17.108;2023-01-19T01:40:43;5.67;;;5.17;;
13102;SDS011;52970;46.752;17.108;2023-01-19T01:43:12;6.43;;;5.60;;
13102;SDS011;52970;46.752;17.108;2023-01-19T01:45:38;6.77;;;5.60;;
13102;SDS011;52970;46.752;17.108;2023-01-19T01:48:17;6.87;;;6.17;;
13102;SDS011;52970;46.752;17.108;2023-01-19T01:50:50;7.33;;;6.10;;
13102;SDS011;52970;46.752;17.108;2023-01-19T01:53:36;7.50;;;6.40;;
13102;SDS011;52970;46.752;17.108;2023-01-19T01:56:04;7.67;;;6.87;;
13102;SDS011;52970;46.752;17.108;2023-01-19T01:58:31;7.80;;;7.03;;
13102;SDS011;52970;46.752;17.108;2023-01-19T02:00:57;8.43;;;7.63;;
13102;SDS011;52970;46.752;17.108;2023-01-19T02:03:41;8.00;;;7.20;;
13102;SDS011;52970;46.752;17.108;2023-01-19T02:06:06;7.47;;;6.40;;
13102;SDS011;52970;46.752;17.108;2023-01-19T02:11:22;9.00;;;7.47;;
13102;SDS011;52970;46.752;17.108;2023-01-19T02:14:06;9.17;;;8.27;;
13102;SDS011;52970;46.752;17.108;2023-01-19T02:16:32;10.17;;;9.07;;
13102;SDS011;52970;46.752;17.108;2023-01-19T02:18:58;10.27;;;9.10;;
13102;SDS011;52970;46.752;17.108;2023-01-19T02:23:59;10.53;;;9.47;;
13102;SDS011;52970;46.752;17.108;2023-01-19T02:26:35;9.47;;;8.57;;
13102;SDS011;52970;46.752;17.108;2023-01-19T02:29:01;9.77;;;8.77;;
13102;SDS011;52970;46.752;17.108;2023-01-19T02:31:28;8.77;;;7.97;;
13102;SDS011;52970;46.752;17.108;2023-01-19T02:33:54;8.77;;;7.87;;
13102;SDS011;52970;46.752;17.108;2023-01-19T02:36:20;10.07;;;8.90;;
13102;SDS011;52970;46.752;17.108;2023-01-19T02:38:47;9.50;;;7.90;;
13102;SDS011;52970;46.752;17.108;2023-01-19T02:41:14;7.30;;;6.60;;
13102;SDS011;52970;46.752;17.108;2023-01-19T02:43:40;7.67;;;6.70;;
13102;SDS011;52970;46.752;17.108;2023-01-19T02:46:06;7.03;;;6.43;;
13102;SDS011;52970;46.752;17.108;2023-01-19T02:48:32;7.30;;;6.60;;
13102;SDS011;52970;46.752;17.108;2023-01-19T02:51:01;7.43;;;6.67;;
13102;SDS011;52970;46.752;17.108;2023-01-19T02:56:08;7.00;;;6.00;;
13102;SDS011;52970;46.752;17.108;2023-01-19T03:03:54;7.13;;;6.43;;
13102;SDS011;52970;46.752;17.108;2023-01-19T03:06:24;6.33;;;5.70;;
13102;SDS011;52970;46.752;17.108;2023-01-19T03:08:58;8.63;;;6.90;;
13102;SDS011;52970;46.752;17.108;2023-01-19T03:11:26;6.73;;;6.13;;
13102;SDS011;52970;46.752;17.108;2023-01-19T03:13:55;6.93;;;6.33;;
13102;SDS011;52970;46.752;17.108;2023-01-19T03:16:41;7.10;;;6.40;;
13102;SDS011;52970;46.752;17.108;2023-01-19T03:19:08;6.63;;;6.03;;
13102;SDS011;52970;46.752;17.108;2023-01-19T03:21:35;6.70;;;6.10;;
13102;SDS011;52970;46.752;17.108;2023-01-19T03:24:01;7.17;;;6.50;;
13102;SDS011;52970;46.752;17.108;2023-01-19T03:26:28;7.30;;;6.60;;
13102;SDS011;52970;46.752;17.108;2023-01-19T03:28:55;7.47;;;6.40;;
13102;SDS011;52970;46.752;17.108;2023-01-19T03:31:23;7.20;;;6.53;;
13102;SDS011;52970;46.752;17.108;2023-01-19T03:33:50;7.00;;;6.40;;
13102;SDS011;52970;46.752;17.108;2023-01-19T03:36:31;7.77;;;6.97;;
13102;SDS011;52970;46.752;17.108;2023-01-19T03:38:58;7.53;;;6.50;;
13102;SDS011;52970;46.752;17.108;2023-01-19T03:41:25;7.53;;;6.83;;
13102;SDS011;52970;46.752;17.108;2023-01-19T03:43:52;9.83;;;7.53;;
13102;SDS011;52970;46.752;17.108;2023-01-19T03:46:17;11.70;;;8.87;;
13102;SDS011;52970;46.752;17.108;2023-01-19T03:48:43;10.63;;;7.63;;
13102;SDS011;52970;46.752;17.108;2023-01-19T03:51:09;25.17;;;12.60;;
13102;SDS011;52970;46.752;17.108;2023-01-19T03:53:35;72.70;;;37.27;;
13102;SDS011;52970;46.752;17.108;2023-01-19T03:56:00;126.97;;;57.57;;
13102;SDS011;52970;46.752;17.108;2023-01-19T03:58:25;74.20;;;35.63;;
13102;SDS011;52970;46.752;17.108;2023-01-19T04:00:51;50.20;;;25.87;;
13102;SDS011;52970;46.752;17.108;2023-01-19T04:03:16;37.83;;;22.77;;
13102;SDS011;52970;46.752;17.108;2023-01-19T04:05:42;35.40;;;22.23;;
13102;SDS011;52970;46.752;17.108;2023-01-19T04:08:08;20.70;;;14.60;;
13102;SDS011;52970;46.752;17.108;2023-01-19T04:10:33;23.57;;;16.27;;
13102;SDS011;52970;46.752;17.108;2023-01-19T04:12:59;27.33;;;18.73;;
13102;SDS011;52970;46.752;17.108;2023-01-19T04:15:25;24.83;;;16.70;;
13102;SDS011;52970;46.752;17.108;2023-01-19T04:17:50;14.87;;;12.37;;
13102;SDS011;52970;46.752;17.108;2023-01-19T04:20:15;19.53;;;13.87;;
13102;SDS011;52970;46.752;17.108;2023-01-19T04:22:41;19.43;;;15.77;;
13102;SDS011;52970;46.752;17.108;2023-01-19T04:25:07;26.63;;;20.00;;
13102;SDS011;52970;46.752;17.108;2023-01-19T04:27:32;18.40;;;14.87;;
13102;SDS011;52970;46.752;17.108;2023-01-19T04:29:57;43.40;;;29.60;;
13102;SDS011;52970;46.752;17.108;2023-01-19T04:32:24;21.63;;;15.70;;
13102;SDS011;52970;46.752;17.108;2023-01-19T04:34:49;14.03;;;10.37;;
13102;SDS011;52970;46.752;17.108;2023-01-19T04:37:14;14.77;;;13.03;;
13102;SDS011;52970;46.752;17.108;2023-01-19T04:39:40;11.17;;;10.07;;
13102;SDS011;52970;46.752;17.108;2023-01-19T04:42:05;9.77;;;8.33;;
13102;SDS011;52970;46.752;17.108;2023-01-19T04:44:30;10.90;;;9.27;;
13102;SDS011;52970;46.752;17.108;2023-01-19T04:46:56;11.57;;;9.37;;
13102;SDS011;52970;46.752;17.108;2023-01-19T04:49:21;10.60;;;8.83;;
13102;SDS011;52970;46.752;17.108;2023-01-19T04:51:47;9.73;;;8.50;;
13102;SDS011;52970;46.752;17.108;2023-01-19T04:54:12;10.20;;;9.13;;
13102;SDS011;52970;46.752;17.108;2023-01-19T04:56:37;9.80;;;8.80;;
13102;SDS011;52970;46.752;17.108;2023-01-19T04:59:05;11.20;;;9.73;;
13102;SDS011;52970;46.752;17.108;2023-01-19T05:01:30;11.07;;;9.97;;
13102;SDS011;52970;46.752;17.108;2023-01-19T05:03:57;9.10;;;8.20;;
13102;SDS011;52970;46.752;17.108;2023-01-19T05:06:22;9.73;;;8.70;;
13102;SDS011;52970;46.752;17.108;2023-01-19T05:08:48;13.93;;;11.63;;
13102;SDS011;52970;46.752;17.108;2023-01-19T05:11:13;12.37;;;11.07;;
13102;SDS011;52970;46.752;17.108;2023-01-19T05:13:38;10.70;;;9.60;;
13102;SDS011;52970;46.752;17.108;2023-01-19T05:16:03;10.70;;;9.60;;
13102;SDS011;52970;46.752;17.108;2023-01-19T05:18:30;9.83;;;8.87;;
13102;SDS011;52970;46.752;17.108;2023-01-19T05:21:00;10.03;;;8.97;;
13102;SDS011;52970;46.752;17.108;2023-01-19T05:23:25;9.57;;;8.57;;
13102;SDS011;52970;46.752;17.108;2023-01-19T05:25:50;12.33;;;10.87;;
13102;SDS011;52970;46.752;17.108;2023-01-19T05:28:16;10.83;;;9.17;;
13102;SDS011;52970;46.752;17.108;2023-01-19T05:30:41;9.47;;;8.47;;
13102;SDS011;52970;46.752;17.108;2023-01-19T05:33:06;10.77;;;8.40;;
13102;SDS011;52970;46.752;17.108;2023-01-19T05:35:32;9.90;;;8.90;;
13102;SDS011;52970;46.752;17.108;2023-01-19T05:37:57;11.40;;;10.20;;
13102;SDS011;52970;46.752;17.108;2023-01-19T05:40:22;10.10;;;9.07;;
13102;SDS011;52970;46.752;17.108;2023-01-19T05:42:48;11.57;;;10.00;;
13102;SDS011;52970;46.752;17.108;2023-01-19T05:45:13;11.60;;;10.47;;
13102;SDS011;52970;46.752;17.108;2023-01-19T05:47:38;10.83;;;9.73;;
13102;SDS011;52970;46.752;17.108;2023-01-19T05:50:04;11.33;;;10.00;;
13102;SDS011;52970;46.752;17.108;2023-01-19T05:52:29;11.20;;;9.03;;
13102;SDS011;52970;46.752;17.108;2023-01-19T05:54:54;9.90;;;8.90;;
13102;SDS011;52970;46.752;17.108;2023-01-19T05:57:20;9.10;;;7.73;;
13102;SDS011;52970;46.752;17.108;2023-01-19T05:59:46;9.20;;;8.20;;
13102;SDS011;52970;46.752;17.108;2023-01-19T06:02:11;9.63;;;8.50;;
13102;SDS011;52970;46.752;17.108;2023-01-19T06:04:36;8.50;;;7.40;;
13102;SDS011;52970;46.752;17.108;2023-01-19T06:07:02;10.00;;;8.10;;
13102;SDS011;52970;46.752;17.108;2023-01-19T06:09:28;9.83;;;7.77;;
13102;SDS011;52970;46.752;17.108;2023-01-19T06:11:53;9.10;;;7.73;;
13102;SDS011;52970;46.752;17.108;2023-01-19T06:14:21;8.70;;;7.90;;
13102;SDS011;52970;46.752;17.108;2023-01-19T06:16:47;8.27;;;7.47;;
13102;SDS011;52970;46.752;17.108;2023-01-19T06:19:12;48.63;;;31.77;;
13102;SDS011;52970;46.752;17.108;2023-01-19T06:21:37;46.50;;;33.43;;
13102;SDS011;52970;46.752;17.108;2023-01-19T06:24:03;24.17;;;19.10;;
13102;SDS011;52970;46.752;17.108;2023-01-19T06:26:28;11.17;;;9.97;;
13102;SDS011;52970;46.752;17.108;2023-01-19T06:28:54;12.20;;;10.77;;
13102;SDS011;52970;46.752;17.108;2023-01-19T06:31:19;13.70;;;10.73;;
13102;SDS011;52970;46.752;17.108;2023-01-19T06:33:44;9.63;;;8.33;;
13102;SDS011;52970;46.752;17.108;2023-01-19T06:36:09;10.87;;;9.40;;
13102;SDS011;52970;46.752;17.108;2023-01-19T06:38:35;10.63;;;9.23;;
13102;SDS011;52970;46.752;17.108;2023-01-19T06:41:00;11.67;;;9.73;;
13102;SDS011;52970;46.752;17.108;2023-01-19T06:43:27;9.80;;;8.80;;
13102;SDS011;52970;46.752;17.108;2023-01-19T06:45:52;11.23;;;8.67;;
13102;SDS011;52970;46.752;17.108;2023-01-19T06:48:18;10.67;;;9.17;;
13102;SDS011;52970;46.752;17.108;2023-01-19T06:50:44;10.53;;;8.87;;
13102;SDS011;52970;46.752;17.108;2023-01-19T06:53:09;10.30;;;8.87;;
13102;SDS011;52970;46.752;17.108;2023-01-19T06:55:35;11.13;;;9.83;;
13102;SDS011;52970;46.752;17.108;2023-01-19T06:58:00;13.50;;;11.20;;
13102;SDS011;52970;46.752;17.108;2023-01-19T07:00:25;12.30;;;10.00;;
13102;SDS011;52970;46.752;17.108;2023-01-19T07:02:51;11.00;;;9.50;;
13102;SDS011;52970;46.752;17.108;2023-01-19T07:05:16;11.20;;;10.00;;
13102;SDS011;52970;46.752;17.108;2023-01-19T07:07:42;11.13;;;9.47;;
13102;SDS011;52970;46.752;17.108;2023-01-19T07:10:09;13.07;;;10.30;;
13102;SDS011;52970;46.752;17.108;2023-01-19T07:12:36;10.20;;;9.10;;
13102;SDS011;52970;46.752;17.108;2023-01-19T07:15:01;13.10;;;9.93;;
13102;SDS011;52970;46.752;17.108;2023-01-19T07:17:26;27.47;;;20.47;;
13102;SDS011;52970;46.752;17.108;2023-01-19T07:19:51;28.70;;;19.23;;
13102;SDS011;52970;46.752;17.108;2023-01-19T07:22:17;16.57;;;12.73;;
13102;SDS011;52970;46.752;17.108;2023-01-19T07:24:42;35.50;;;24.37;;
13102;SDS011;52970;46.752;17.108;2023-01-19T07:27:08;23.40;;;18.40;;
13102;SDS011;52970;46.752;17.108;2023-01-19T07:29:35;16.77;;;14.20;;
13102;SDS011;52970;46.752;17.108;2023-01-19T07:32:00;12.63;;;10.70;;
13102;SDS011;52970;46.752;17.108;2023-01-19T07:34:26;16.80;;;12.53;;
13102;SDS011;52970;46.752;17.108;2023-01-19T07:36:51;12.70;;;10.67;;
13102;SDS011;52970;46.752;17.108;2023-01-19T07:39:16;12.87;;;9.87;;
13102;SDS011;52970;46.752;17.108;2023-01-19T07:41:42;10.13;;;9.10;;
13102;SDS011;52970;46.752;17.108;2023-01-19T07:44:07;11.17;;;9.53;;
13102;SDS011;52970;46.752;17.108;2023-01-19T07:46:32;9.93;;;8.90;;
13102;SDS011;52970;46.752;17.108;2023-01-19T07:48:58;11.80;;;9.70;;
13102;SDS011;52970;46.752;17.108;2023-01-19T07:51:23;10.70;;;9.17;;
13102;SDS011;52970;46.752;17.108;2023-01-19T07:53:49;11.90;;;9.13;;
13102;SDS011;52970;46.752;17.108;2023-01-19T07:56:14;11.43;;;9.93;;
13102;SDS011;52970;46.752;17.108;2023-01-19T07:58:39;12.83;;;10.80;;
13102;SDS011;52970;46.752;17.108;2023-01-19T08:01:08;19.80;;;14.30;;
13102;SDS011;52970;46.752;17.108;2023-01-19T08:03:34;20.27;;;14.67;;
13102;SDS011;52970;46.752;17.108;2023-01-19T08:06:00;13.90;;;11.63;;
13102;SDS011;52970;46.752;17.108;2023-01-19T08:08:27;11.20;;;10.00;;
13102;SDS011;52970;46.752;17.108;2023-01-19T08:10:53;12.43;;;10.67;;
13102;SDS011;52970;46.752;17.108;2023-01-19T08:13:18;12.43;;;9.93;;
13102;SDS011;52970;46.752;17.108;2023-01-19T08:15:43;12.13;;;9.57;;
13102;SDS011;52970;46.752;17.108;2023-01-19T08:18:08;11.07;;;9.93;;
13102;SDS011;52970;46.752;17.108;2023-01-19T08:20:35;13.17;;;10.73;;
13102;SDS011;52970;46.752;17.108;2023-01-19T08:23:01;12.37;;;11.07;;
13102;SDS011;52970;46.752;17.108;2023-01-19T08:27:57;15.23;;;13.27;;
13102;SDS011;52970;46.752;17.108;2023-01-19T08:30:23;29.63;;;26.47;;
13102;SDS011;52970;46.752;17.108;2023-01-19T08:32:51;19.43;;;16.47;;
13102;SDS011;52970;46.752;17.108;2023-01-19T08:35:16;14.60;;;12.83;;
13102;SDS011;52970;46.752;17.108;2023-01-19T08:37:42;12.57;;;11.00;;
13102;SDS011;52970;46.752;17.108;2023-01-19T08:40:07;14.67;;;12.87;;
13102;SDS011;52970;46.752;17.108;2023-01-19T08:42:32;14.30;;;12.40;;
13102;SDS011;52970;46.752;17.108;2023-01-19T08:44:58;13.77;;;12.27;;
13102;SDS011;52970;46.752;17.108;2023-01-19T08:47:23;12.83;;;10.97;;
13102;SDS011;52970;46.752;17.108;2023-01-19T08:49:48;12.83;;;10.40;;
13102;SDS011;52970;46.752;17.108;2023-01-19T08:52:13;11.80;;;9.40;;
13102;SDS011;52970;46.752;17.108;2023-01-19T08:54:39;10.50;;;8.70;;
13102;SDS011;52970;46.752;17.108;2023-01-19T08:57:05;12.20;;;9.37;;
13102;SDS011;52970;46.752;17.108;2023-01-19T08:59:31;11.10;;;9.63;;
13102;SDS011;52970;46.752;17.108;2023-01-19T09:01:56;11.63;;;9.87;;
13102;SDS011;52970;46.752;17.108;2023-01-19T09:04:22;10.53;;;9.33;;
13102;SDS011;52970;46.752;17.108;2023-01-19T09:06:48;11.87;;;9.97;;
13102;SDS011;52970;46.752;17.108;2023-01-19T09:09:13;16.20;;;11.27;;
13102;SDS011;52970;46.752;17.108;2023-01-19T09:11:38;11.63;;;9.70;;
13102;SDS011;52970;46.752;17.108;2023-01-19T09:14:04;12.20;;;10.07;;
13102;SDS011;52970;46.752;17.108;2023-01-19T09:16:29;12.47;;;10.73;;
13102;SDS011;52970;46.752;17.108;2023-01-19T09:18:55;10.60;;;9.27;;
13102;SDS011;52970;46.752;17.108;2023-01-19T09:21:20;12.50;;;10.80;;
13102;SDS011;52970;46.752;17.108;2023-01-19T09:23:46;12.50;;;10.03;;
13102;SDS011;52970;46.752;17.108;2023-01-19T09:26:11;11.50;;;9.90;;
13102;SDS011;52970;46.752;17.108;2023-01-19T09:28:36;11.27;;;9.43;;
13102;SDS011;52970;46.752;17.108;2023-01-19T09:31:05;12.43;;;10.33;;
13102;SDS011;52970;46.752;17.108;2023-01-19T09:33:31;12.43;;;10.47;;
13102;SDS011;52970;46.752;17.108;2023-01-19T09:35:57;11.13;;;9.13;;
13102;SDS011;52970;46.752;17.108;2023-01-19T09:38:22;10.60;;;9.50;;
13102;SDS011;52970;46.752;17.108;2023-01-19T09:40:51;11.40;;;8.93;;
13102;SDS011;52970;46.752;17.108;2023-01-19T09:45:57;10.43;;;8.37;;
13102;SDS011;52970;46.752;17.108;2023-01-19T09:51:14;11.37;;;10.17;;
13102;SDS011;52970;46.752;17.108;2023-01-19T09:53:51;11.10;;;9.53;;
13102;SDS011;52970;46.752;17.108;2023-01-19T09:56:19;11.27;;;9.90;;
13102;SDS011;52970;46.752;17.108;2023-01-19T09:58:46;12.27;;;9.87;;
13102;SDS011;52970;46.752;17.108;2023-01-19T10:01:16;10.60;;;9.27;;
13102;SDS011;52970;46.752;17.108;2023-01-19T10:03:45;12.90;;;9.70;;
13102;SDS011;52970;46.752;17.108;2023-01-19T10:06:12;10.83;;;9.60;;
13102;SDS011;52970;46.752;17.108;2023-01-19T10:08:40;11.27;;;10.07;;
13102;SDS011;52970;46.752;17.108;2023-01-19T10:11:23;10.90;;;9.43;;
13102;SDS011;52970;46.752;17.108;2023-01-19T10:13:51;11.40;;;10.07;;
13102;SDS011;52970;46.752;17.108;2023-01-19T10:16:29;10.50;;;8.37;;
13102;SDS011;52970;46.752;17.108;2023-01-19T10:19:16;10.93;;;9.60;;
13102;SDS011;52970;46.752;17.108;2023-01-19T10:21:44;17.57;;;13.47;;
13102;SDS011;52970;46.752;17.108;2023-01-19T10:26:45;22.23;;;15.87;;
13102;SDS011;52970;46.752;17.108;2023-01-19T10:31:37;33.10;;;21.70;;
13102;SDS011;52970;46.752;17.108;2023-01-19T10:34:03;34.07;;;23.47;;
13102;SDS011;52970;46.752;17.108;2023-01-19T10:36:37;20.87;;;15.87;;
13102;SDS011;52970;46.752;17.108;2023-01-19T10:39:05;33.93;;;22.57;;
13102;SDS011;52970;46.752;17.108;2023-01-19T10:41:34;48.37;;;29.30;;
13102;SDS011;52970;46.752;17.108;2023-01-19T10:44:03;24.63;;;17.40;;
13102;SDS011;52970;46.752;17.108;2023-01-19T10:46:42;14.33;;;10.90;;
13102;SDS011;52970;46.752;17.108;2023-01-19T10:52:04;17.50;;;13.67;;
13102;SDS011;52970;46.752;17.108;2023-01-19T10:54:30;24.33;;;18.73;;
13102;SDS011;52970;46.752;17.108;2023-01-19T10:57:06;31.93;;;22.17;;
13102;SDS011;52970;46.752;17.108;2023-01-19T10:59:46;28.40;;;22.13;;
13102;SDS011;52970;46.752;17.108;2023-01-19T11:04:42;23.97;;;19.23;;
13102;SDS011;52970;46.752;17.108;2023-01-19T11:09:38;19.67;;;17.63;;
13102;SDS011;52970;46.752;17.108;2023-01-19T11:12:03;14.27;;;12.87;;
13102;SDS011;52970;46.752;17.108;2023-01-19T11:14:29;12.90;;;11.60;;
13102;SDS011;52970;46.752;17.108;2023-01-19T11:16:55;9.80;;;8.30;;
13102;SDS011;52970;46.752;17.108;2023-01-19T11:19:30;14.00;;;11.03;;
13102;SDS011;52970;46.752;17.108;2023-01-19T11:24:35;10.17;;;8.60;;
13102;SDS011;52970;46.752;17.108;2023-01-19T11:27:00;10.00;;;8.00;;
13102;SDS011;52970;46.752;17.108;2023-01-19T11:29:27;9.57;;;8.30;;
13102;SDS011;52970;46.752;17.108;2023-01-19T11:31:54;8.03;;;7.23;;
13102;SDS011;52970;46.752;17.108;2023-01-19T11:34:34;8.70;;;7.80;;
13102;SDS011;52970;46.752;17.108;2023-01-19T11:37:04;9.40;;;8.50;;
13102;SDS011;52970;46.752;17.108;2023-01-19T11:39:31;7.90;;;7.10;;
13102;SDS011;52970;46.752;17.108;2023-01-19T11:41:59;10.47;;;8.37;;
13102;SDS011;52970;46.752;17.108;2023-01-19T11:44:26;7.93;;;7.13;;
13102;SDS011;52970;46.752;17.108;2023-01-19T11:46:57;11.40;;;8.87;;
13102;SDS011;52970;46.752;17.108;2023-01-19T11:52:04;9.60;;;7.60;;
13102;SDS011;52970;46.752;17.108;2023-01-19T11:54:40;11.33;;;9.57;;
13102;SDS011;52970;46.752;17.108;2023-01-19T11:57:11;10.43;;;8.23;;
13102;SDS011;52970;46.752;17.108;2023-01-19T11:59:38;8.70;;;7.83;;
13102;SDS011;52970;46.752;17.108;2023-01-19T12:02:04;9.70;;;7.73;;
13102;SDS011;52970;46.752;17.108;2023-01-19T12:04:36;13.50;;;10.87;;
13102;SDS011;52970;46.752;17.108;2023-01-19T12:07:03;9.23;;;8.23;;
13102;SDS011;52970;46.752;17.108;2023-01-19T12:09:44;8.87;;;7.97;;
13102;SDS011;52970;46.752;17.108;2023-01-19T12:12:31;8.97;;;8.07;;
13102;SDS011;52970;46.752;17.108;2023-01-19T12:17:25;9.03;;;8.03;;
13102;SDS011;52970;46.752;17.108;2023-01-19T12:19:52;8.33;;;7.50;;
13102;SDS011;52970;46.752;17.108;2023-01-19T12:22:18;9.33;;;8.33;;
13102;SDS011;52970;46.752;17.108;2023-01-19T12:24:59;9.60;;;7.03;;
13102;SDS011;52970;46.752;17.108;2023-01-19T12:27:36;9.00;;;8.10;;
13102;SDS011;52970;46.752;17.108;2023-01-19T12:30:02;10.03;;;7.87;;
13102;SDS011;52970;46.752;17.108;2023-01-19T12:32:32;10.00;;;8.83;;
13102;SDS011;52970;46.752;17.108;2023-01-19T12:34:57;10.27;;;8.87;;
13102;SDS011;52970;46.752;17.108;2023-01-19T12:39:51;8.63;;;7.63;;
13102;SDS011;52970;46.752;17.108;2023-01-19T12:42:17;8.10;;;7.30;;
13102;SDS011;52970;46.752;17.108;2023-01-19T12:44:43;10.97;;;8.07;;
13102;SDS011;52970;46.752;17.108;2023-01-19T12:54:34;8.93;;;7.23;;
13102;SDS011;52970;46.752;17.108;2023-01-19T12:57:05;9.67;;;7.57;;
13102;SDS011;52970;46.752;17.108;2023-01-19T12:59:32;13.07;;;9.27;;
13102;SDS011;52970;46.752;17.108;2023-01-19T13:07:26;16.60;;;14.00;;
13102;SDS011;52970;46.752;17.108;2023-01-19T13:09:52;19.93;;;14.60;;
13102;SDS011;52970;46.752;17.108;2023-01-19T13:12:20;22.10;;;14.63;;
13102;SDS011;52970;46.752;17.108;2023-01-19T13:14:45;16.87;;;12.00;;
13102;SDS011;52970;46.752;17.108;2023-01-19T13:19:51;23.60;;;17.80;;
13102;SDS011;52970;46.752;17.108;2023-01-19T13:25:10;18.60;;;12.73;;
13102;SDS011;52970;46.752;17.108;2023-01-19T13:27:36;17.73;;;14.43;;
13102;SDS011;52970;46.752;17.108;2023-01-19T13:30:08;14.40;;;11.27;;
13102;SDS011;52970;46.752;17.108;2023-01-19T13:32:33;19.53;;;16.80;;
13102;SDS011;52970;46.752;17.108;2023-01-19T13:34:59;18.57;;;14.63;;
13102;SDS011;52970;46.752;17.108;2023-01-19T13:37:34;23.47;;;19.37;;
13102;SDS011;52970;46.752;17.108;2023-01-19T13:40:00;14.90;;;13.07;;
13102;SDS011;52970;46.752;17.108;2023-01-19T13:42:30;23.60;;;20.13;;
13102;SDS011;52970;46.752;17.108;2023-01-19T13:44:57;43.83;;;34.90;;
13102;SDS011;52970;46.752;17.108;2023-01-19T13:47:24;20.03;;;17.27;;
13102;SDS011;52970;46.752;17.108;2023-01-19T13:49:52;12.53;;;11.13;;
13102;SDS011;52970;46.752;17.108;2023-01-19T13:52:21;17.43;;;15.17;;
13102;SDS011;52970;46.752;17.108;2023-01-19T13:54:53;42.60;;;27.60;;
13102;SDS011;52970;46.752;17.108;2023-01-19T14:02:28;16.67;;;14.73;;
13102;SDS011;52970;46.752;17.108;2023-01-19T14:04:53;18.23;;;14.33;;
13102;SDS011;52970;46.752;17.108;2023-01-19T14:07:21;15.97;;;13.33;;
13102;SDS011;52970;46.752;17.108;2023-01-19T14:12:44;10.80;;;9.03;;
13102;SDS011;52970;46.752;17.108;2023-01-19T14:15:11;11.97;;;10.57;;
13102;SDS011;52970;46.752;17.108;2023-01-19T14:17:39;10.90;;;9.53;;
13102;SDS011;52970;46.752;17.108;2023-01-19T14:20:05;11.67;;;9.40;;
13102;SDS011;52970;46.752;17.108;2023-01-19T14:22:43;9.07;;;7.57;;
13102;SDS011;52970;46.752;17.108;2023-01-19T14:27:49;8.73;;;7.83;;
13102;SDS011;52970;46.752;17.108;2023-01-19T14:30:21;9.53;;;7.97;;
13102;SDS011;52970;46.752;17.108;2023-01-19T14:32:48;6.90;;;6.20;;
13102;SDS011;52970;46.752;17.108;2023-01-19T14:35:22;9.90;;;7.63;;
13102;SDS011;52970;46.752;17.108;2023-01-19T14:37:48;9.97;;;7.73;;
13102;SDS011;52970;46.752;17.108;2023-01-19T14:42:49;7.53;;;6.60;;
13102;SDS011;52970;46.752;17.108;2023-01-19T14:45:17;7.33;;;6.37;;
13102;SDS011;52970;46.752;17.108;2023-01-19T14:47:43;5.53;;;5.00;;
13102;SDS011;52970;46.752;17.108;2023-01-19T14:52:41;6.63;;;5.67;;
13102;SDS011;52970;46.752;17.108;2023-01-19T14:55:17;10.17;;;9.10;;
13102;SDS011;52970;46.752;17.108;2023-01-19T14:57:44;10.20;;;8.70;;
13102;SDS011;52970;46.752;17.108;2023-01-19T15:00:13;17.50;;;10.20;;
13102;SDS011;52970;46.752;17.108;2023-01-19T15:02:40;14.20;;;9.87;;
13102;SDS011;52970;46.752;17.108;2023-01-19T15:05:06;10.33;;;8.27;;
13102;SDS011;52970;46.752;17.108;2023-01-19T15:07:32;11.83;;;8.20;;
13102;SDS011;52970;46.752;17.108;2023-01-19T15:09:57;12.60;;;7.63;;
13102;SDS011;52970;46.752;17.108;2023-01-19T15:12:23;19.27;;;10.27;;
13102;SDS011;52970;46.752;17.108;2023-01-19T15:14:51;14.30;;;8.90;;
13102;SDS011;52970;46.752;17.108;2023-01-19T15:17:17;10.60;;;7.57;;
13102;SDS011;52970;46.752;17.108;2023-01-19T15:19:49;13.93;;;10.93;;
13102;SDS011;52970;46.752;17.108;2023-01-19T15:22:14;11.60;;;10.40;;
13102;SDS011;52970;46.752;17.108;2023-01-19T15:24:40;22.00;;;13.77;;
13102;SDS011;52970;46.752;17.108;2023-01-19T15:27:08;20.93;;;12.40;;
13102;SDS011;52970;46.752;17.108;2023-01-19T15:29:33;19.90;;;12.93;;
13102;SDS011;52970;46.752;17.108;2023-01-19T15:31:58;11.17;;;8.70;;
13102;SDS011;52970;46.752;17.108;2023-01-19T15:34:23;13.87;;;10.13;;
13102;SDS011;52970;46.752;17.108;2023-01-19T15:36:49;12.63;;;9.03;;